createdAt,value
2022-10-05T00:00:01.138Z,993.1805
2022-10-05T00:01:00.268Z,993.0874
2022-10-05T00:02:00.573Z,993.1588
2022-10-05T00:03:00.548Z,993.0874
2022-10-05T00:04:00.778Z,992.9713
2022-10-05T00:05:00.892Z,993.1231
2022-10-05T00:06:01.021Z,993
2022-10-05T00:07:01.139Z,993.0587
2022-10-05T00:08:00.288Z,993.0727
2022-10-05T00:09:00.444Z,992.9783
2022-10-05T00:10:00.590Z,993.044
2022-10-05T00:11:00.740Z,992.9783
2022-10-05T00:12:00.884Z,992.9139
2022-10-05T00:13:01.026Z,993
2022-10-05T00:14:01.201Z,993.1231
2022-10-05T00:15:00.317Z,993.0517
2022-10-05T00:16:00.464Z,992.9356
2022-10-05T00:17:00.703Z,992.9356
2022-10-05T00:18:00.769Z,992.9069
2022-10-05T00:19:00.923Z,993.0517
2022-10-05T00:20:01.068Z,993.3
2022-10-05T00:21:01.210Z,993.0517
2022-10-05T00:22:00.354Z,992.986
2022-10-05T00:23:00.504Z,992.9432
2022-10-05T00:24:00.674Z,992.8813
2022-10-05T00:25:00.782Z,992.889
2022-10-05T00:26:00.933Z,992.8388
2022-10-05T00:27:01.091Z,992.9007
2022-10-05T00:28:01.323Z,993.0959
2022-10-05T00:29:00.413Z,992.8681
2022-10-05T00:30:00.538Z,993.0602
2022-10-05T00:31:00.705Z,992.9589
2022-10-05T00:32:00.916Z,992.9665
2022-10-05T00:33:00.984Z,992.974
2022-10-05T00:34:01.135Z,992.9166
2022-10-05T00:35:00.287Z,993.0614
2022-10-05T00:36:00.454Z,993.0614
2022-10-05T00:37:00.574Z,993.0614
2022-10-05T00:38:00.722Z,992.974
2022-10-05T00:39:00.856Z,992.8406
2022-10-05T00:40:01.027Z,992.888
2022-10-05T00:41:01.154Z,992.8949
2022-10-05T00:42:00.292Z,992.8476
2022-10-05T00:43:00.466Z,992.9589
2022-10-05T00:44:00.582Z,992.9161
2022-10-05T00:45:00.731Z,992.9589
2022-10-05T00:46:00.945Z,992.9589
2022-10-05T00:47:01.029Z,992.7681
2022-10-05T00:48:01.203Z,993.0959
2022-10-05T00:49:00.323Z,992.9874
2022-10-05T00:50:00.480Z,992.9874
2022-10-05T00:51:00.638Z,992.9874
2022-10-05T00:52:00.790Z,993.0533
2022-10-05T00:53:00.953Z,993.0602
2022-10-05T00:54:01.083Z,993.0889
2022-10-05T00:55:01.224Z,992.8252
2022-10-05T00:56:00.381Z,992.9874
2022-10-05T00:57:00.527Z,992.9161
2022-10-05T00:58:00.697Z,993.0021
2022-10-05T00:59:00.849Z,992.8547
2022-10-05T01:00:00.980Z,992.8547
2022-10-05T01:01:01.161Z,992.9021
2022-10-05T01:02:00.352Z,992.8904
2022-10-05T01:03:00.417Z,992.8904
2022-10-05T01:04:00.588Z,992.8547
2022-10-05T01:05:00.721Z,992.9166
2022-10-05T01:06:00.880Z,992.9453
2022-10-05T01:07:01.007Z,993.0614
2022-10-05T01:08:01.151Z,992.9453
2022-10-05T01:09:00.330Z,992.974
2022-10-05T01:10:00.444Z,992.9166
2022-10-05T01:11:00.621Z,992.974
2022-10-05T01:12:00.766Z,992.8693
2022-10-05T01:13:00.904Z,992.9523
2022-10-05T01:14:01.064Z,993.0614
2022-10-05T01:15:01.173Z,992.9523
2022-10-05T01:16:00.389Z,992.888
2022-10-05T01:17:00.539Z,992.9166
2022-10-05T01:18:00.628Z,993.0614
2022-10-05T01:19:00.788Z,992.8127
2022-10-05T01:20:00.944Z,992.9244
2022-10-05T01:21:01.066Z,992.9033
2022-10-05T01:22:01.217Z,992.7489
2022-10-05T01:23:00.358Z,992.8567
2022-10-05T01:24:00.512Z,992.635
2022-10-05T01:25:00.682Z,992.8503
2022-10-05T01:26:00.809Z,992.8077
2022-10-05T01:27:00.958Z,992.6721
2022-10-05T01:28:01.173Z,992.8015
2022-10-05T01:29:01.263Z,992.7587
2022-10-05T01:30:00.409Z,992.6162
2022-10-05T01:31:00.532Z,992.5877
2022-10-05T01:32:00.677Z,992.7597
2022-10-05T01:33:00.823Z,992.6457
2022-10-05T01:34:00.979Z,992.6387
2022-10-05T01:35:01.140Z,992.6526
2022-10-05T01:36:00.272Z,992.7169
2022-10-05T01:37:00.433Z,992.8533
2022-10-05T01:38:00.584Z,992.6457
2022-10-05T01:39:00.735Z,992.5241
2022-10-05T01:40:00.896Z,992.7394
2022-10-05T01:41:01.038Z,992.7681
2022-10-05T01:42:01.173Z,992.668
2022-10-05T01:43:00.301Z,992.8115
2022-10-05T01:44:00.453Z,992.7542
2022-10-05T01:45:00.622Z,992.5834
2022-10-05T01:46:00.844Z,992.6268
2022-10-05T01:47:00.921Z,992.6268
2022-10-05T01:48:01.065Z,992.7701
2022-10-05T01:49:01.214Z,992.6987
2022-10-05T01:50:00.364Z,992.663
2022-10-05T01:51:00.535Z,992.7203
2022-10-05T01:52:00.666Z,992.7351
2022-10-05T01:53:00.813Z,992.6925
2022-10-05T01:54:00.961Z,992.779
2022-10-05T01:55:01.110Z,992.5716
2022-10-05T01:56:00.276Z,992.7434
2022-10-05T01:57:00.430Z,992.6651
2022-10-05T01:58:00.556Z,992.5014
2022-10-05T01:59:00.699Z,992.4658
2022-10-05T02:00:00.840Z,992.2653
2022-10-05T02:01:01.044Z,992.4658
2022-10-05T02:02:01.214Z,992.2653
2022-10-05T02:03:00.307Z,992.358
2022-10-05T02:04:00.451Z,992.6722
2022-10-05T02:05:02.337Z,992.3997
2022-10-05T02:06:00.756Z,992.306
2022-10-05T02:07:00.888Z,992.3409
2022-10-05T02:08:01.052Z,992.3192
2022-10-05T02:09:01.188Z,992.283
2022-10-05T02:10:00.331Z,992.4549
2022-10-05T02:11:00.502Z,992.5194
2022-10-05T02:12:00.617Z,992.4115
2022-10-05T02:13:00.759Z,992.4907
2022-10-05T02:14:00.905Z,992.4621
2022-10-05T02:15:01.056Z,992.5122
2022-10-05T02:16:01.384Z,992.6268
2022-10-05T02:17:00.351Z,992.5701
2022-10-05T02:18:00.507Z,992.5701
2022-10-05T02:19:00.656Z,992.5484
2022-10-05T02:20:00.806Z,992.5701
2022-10-05T02:21:00.977Z,992.5701
2022-10-05T02:22:01.086Z,992.6491
2022-10-05T02:23:01.239Z,992.5128
2022-10-05T02:24:00.381Z,992.6205
2022-10-05T02:25:00.526Z,992.5351
2022-10-05T02:26:00.698Z,992.4781
2022-10-05T02:27:00.816Z,992.5429
2022-10-05T02:28:01.046Z,992.6651
2022-10-05T02:29:01.114Z,992.53
2022-10-05T02:30:00.255Z,992.6166
2022-10-05T02:31:00.429Z,992.4382
2022-10-05T02:32:00.543Z,992.3887
2022-10-05T02:33:00.702Z,992.4755
2022-10-05T02:34:00.852Z,992.4399
2022-10-05T02:35:01.012Z,992.3618
2022-10-05T02:36:01.163Z,992.3833
2022-10-05T02:37:00.328Z,992.4049
2022-10-05T02:38:00.445Z,992.3904
2022-10-05T02:39:00.606Z,992.3616
2022-10-05T02:40:00.742Z,992.4544
2022-10-05T02:41:00.893Z,992.4258
2022-10-05T02:42:01.059Z,992.483
2022-10-05T02:43:01.202Z,992.3616
2022-10-05T02:44:00.327Z,992.3191
2022-10-05T02:45:00.481Z,992.4336
2022-10-05T02:46:00.669Z,992.4839
2022-10-05T02:47:00.826Z,992.3338
2022-10-05T02:48:00.920Z,992.3911
2022-10-05T02:49:01.065Z,992.5125
2022-10-05T02:50:01.215Z,992.3911
2022-10-05T02:51:00.360Z,992.3477
2022-10-05T02:52:00.525Z,992.3546
2022-10-05T02:53:00.649Z,992.3616
2022-10-05T02:54:00.796Z,992.361
2022-10-05T02:55:00.945Z,992.361
2022-10-05T02:56:01.091Z,992.2681
2022-10-05T02:57:01.256Z,992.2185
2022-10-05T02:58:00.414Z,992.3254
2022-10-05T02:59:00.543Z,992.2679
2022-10-05T03:00:00.682Z,992.3887
2022-10-05T03:01:00.926Z,992.217
2022-10-05T03:02:01.112Z,992.3887
2022-10-05T03:03:01.151Z,992.1883
2022-10-05T03:04:00.280Z,992.3887
2022-10-05T03:05:00.423Z,992.2241
2022-10-05T03:06:00.577Z,992.1597
2022-10-05T03:07:00.736Z,992.2742
2022-10-05T03:08:00.886Z,992.217
2022-10-05T03:09:01.047Z,992.3887
2022-10-05T03:10:01.482Z,992.2742
2022-10-05T03:11:00.322Z,992.2742
2022-10-05T03:12:00.460Z,992.2742
2022-10-05T03:13:00.608Z,992.6178
2022-10-05T03:14:00.792Z,992.5033
2022-10-05T03:15:00.910Z,992.3887
2022-10-05T03:16:01.110Z,992.3887
2022-10-05T03:17:01.218Z,992.4174
2022-10-05T03:18:00.344Z,992.511
2022-10-05T03:19:00.525Z,992.361
2022-10-05T03:20:00.644Z,992.4683
2022-10-05T03:21:00.802Z,992.3904
2022-10-05T03:22:00.946Z,992.4264
2022-10-05T03:23:01.097Z,992.4344
2022-10-05T03:24:01.272Z,992.3344
2022-10-05T03:25:00.393Z,992.1922
2022-10-05T03:26:00.538Z,992.3422
2022-10-05T03:27:00.711Z,992.4281
2022-10-05T03:28:00.918Z,992.3925
2022-10-05T03:29:01.003Z,992.2856
2022-10-05T03:30:01.150Z,992.3292
2022-10-05T03:31:00.480Z,992.4937
2022-10-05T03:32:00.436Z,992.4298
2022-10-05T03:33:00.584Z,992.4087
2022-10-05T03:34:00.729Z,992.4449
2022-10-05T03:35:00.887Z,992.3955
2022-10-05T03:36:01.018Z,992.3385
2022-10-05T03:37:01.171Z,992.5757
2022-10-05T03:38:00.314Z,992.4192
2022-10-05T03:39:00.469Z,992.3566
2022-10-05T03:40:00.642Z,992.3011
2022-10-05T03:41:00.758Z,992.4446
2022-10-05T03:42:00.910Z,992.3387
2022-10-05T03:43:01.055Z,992.2755
2022-10-05T03:44:01.225Z,992.4469
2022-10-05T03:45:00.361Z,992.2623
2022-10-05T03:46:00.562Z,992.2554
2022-10-05T03:47:00.639Z,992.3411
2022-10-05T03:48:01.728Z,992.1913
2022-10-05T03:49:00.946Z,992.2623
2022-10-05T03:50:01.114Z,992.1411
2022-10-05T03:51:01.240Z,992.2554
2022-10-05T03:52:00.387Z,992.2484
2022-10-05T03:53:00.528Z,992.2629
2022-10-05T03:54:00.672Z,992.3131
2022-10-05T03:55:00.838Z,992.3994
2022-10-05T03:56:03.209Z,992.4141
2022-10-05T03:57:01.109Z,992.378
2022-10-05T03:58:00.261Z,992.3988
2022-10-05T03:59:00.412Z,992.2991
2022-10-05T04:00:00.588Z,992.4064
2022-10-05T04:01:00.733Z,992.2281
2022-10-05T04:02:00.938Z,992.4141
2022-10-05T04:03:01.059Z,992.4723
2022-10-05T04:04:01.157Z,992.4874
2022-10-05T04:05:00.302Z,992.2878
2022-10-05T04:06:00.489Z,992.3161
2022-10-05T04:07:00.618Z,992.3526
2022-10-05T04:08:00.753Z,992.4026
2022-10-05T04:09:00.922Z,992.2454
2022-10-05T04:10:01.069Z,992.31
2022-10-05T04:11:01.257Z,992.2962
2022-10-05T04:12:00.368Z,992.3316
2022-10-05T04:13:00.520Z,992.4465
2022-10-05T04:14:00.681Z,992.3755
2022-10-05T04:15:00.818Z,992.3329
2022-10-05T04:16:01.043Z,992.3833
2022-10-05T04:17:01.110Z,992.3917
2022-10-05T04:18:01.260Z,992.2998
2022-10-05T04:19:00.399Z,992.3499
2022-10-05T04:20:00.547Z,992.3793
2022-10-05T04:21:00.711Z,992.5289
2022-10-05T04:22:00.863Z,992.4364
2022-10-05T04:23:00.995Z,992.3229
2022-10-05T04:24:01.170Z,992.3229
2022-10-05T04:25:00.309Z,992.2874
2022-10-05T04:26:00.451Z,992.3021
2022-10-05T04:27:00.601Z,992.3166
2022-10-05T04:28:00.850Z,992.3738
2022-10-05T04:29:00.867Z,992.2459
2022-10-05T04:30:00.983Z,992.2034
2022-10-05T04:31:01.168Z,992.3174
2022-10-05T04:32:00.274Z,992.282
2022-10-05T04:33:00.439Z,992.225
2022-10-05T04:34:00.573Z,992.3105
2022-10-05T04:35:00.717Z,992.4816
2022-10-05T04:36:00.868Z,992.2543
2022-10-05T04:37:01.019Z,992.3114
2022-10-05T04:38:01.178Z,992.2189
2022-10-05T04:39:00.328Z,992.3904
2022-10-05T04:40:00.456Z,992.3904
2022-10-05T04:41:00.633Z,992.3621
2022-10-05T04:42:00.753Z,992.4189
2022-10-05T04:43:00.902Z,992.3621
2022-10-05T04:44:01.050Z,992.5122
2022-10-05T04:45:01.198Z,992.3126
2022-10-05T04:46:00.375Z,992.3982
2022-10-05T04:47:00.618Z,992.3411
2022-10-05T04:48:00.644Z,992.2919
2022-10-05T04:49:00.771Z,992.4059
2022-10-05T04:50:00.920Z,992.3135
2022-10-05T04:51:01.080Z,992.399
2022-10-05T04:52:01.203Z,992.442
2022-10-05T04:53:00.351Z,992.3996
2022-10-05T04:54:00.499Z,992.1647
2022-10-05T04:55:00.652Z,992.3212
2022-10-05T04:56:00.815Z,992.2217
2022-10-05T04:57:00.936Z,992.3996
2022-10-05T04:58:01.089Z,992.4923
2022-10-05T04:59:01.270Z,992.4135
2022-10-05T05:00:00.391Z,992.3279
2022-10-05T05:01:00.608Z,992.2642
2022-10-05T05:02:00.674Z,992.4852
2022-10-05T05:03:00.818Z,992.2437
2022-10-05T05:04:01.122Z,992.3577
2022-10-05T05:05:01.125Z,992.2722
2022-10-05T05:06:17.289Z,992.2437
2022-10-05T05:07:00.393Z,992.1511
2022-10-05T05:08:00.542Z,992.1867
2022-10-05T05:09:00.702Z,992.3862
2022-10-05T05:10:00.845Z,992.386
2022-10-05T05:11:00.982Z,992.5137
2022-10-05T05:12:01.123Z,992.2722
2022-10-05T05:13:00.269Z,992.4361
2022-10-05T05:14:00.414Z,992.3651
2022-10-05T05:15:00.579Z,992.4153
2022-10-05T05:16:00.773Z,992.3083
2022-10-05T05:17:00.860Z,992.4717
2022-10-05T05:18:01.020Z,992.3722
2022-10-05T05:19:01.151Z,992.5002
2022-10-05T05:20:00.327Z,992.3577
2022-10-05T05:21:00.450Z,992.5422
2022-10-05T05:22:00.605Z,992.4923
2022-10-05T05:23:00.751Z,992.4852
2022-10-05T05:24:00.903Z,992.4717
2022-10-05T05:25:01.085Z,992.4852
2022-10-05T05:26:01.198Z,992.5002
2022-10-05T05:27:00.342Z,992.4923
2022-10-05T05:28:00.596Z,992.4776
2022-10-05T05:29:00.652Z,992.442
2022-10-05T05:30:00.811Z,992.3783
2022-10-05T05:31:01.021Z,992.3282
2022-10-05T05:32:01.098Z,992.3565
2022-10-05T05:33:01.236Z,992.3351
2022-10-05T05:34:00.385Z,992.4135
2022-10-05T05:35:00.535Z,992.4059
2022-10-05T05:36:00.688Z,992.4059
2022-10-05T05:37:00.817Z,992.4768
2022-10-05T05:38:00.965Z,992.4474
2022-10-05T05:39:01.126Z,992.433
2022-10-05T05:40:00.266Z,992.4755
2022-10-05T05:41:00.438Z,992.511
2022-10-05T05:42:00.580Z,992.568
2022-10-05T05:43:00.719Z,992.3961
2022-10-05T05:44:00.857Z,992.6528
2022-10-05T05:45:01.019Z,992.6882
2022-10-05T05:46:01.158Z,992.4957
2022-10-05T05:47:04.886Z,992.3384
2022-10-05T05:48:00.468Z,992.3166
2022-10-05T05:49:00.600Z,992.4663
2022-10-05T05:50:06.373Z,992.4594
2022-10-05T05:51:00.899Z,992.4517
2022-10-05T05:52:01.035Z,992.373
2022-10-05T05:53:01.205Z,992.2729
2022-10-05T05:54:00.333Z,992.5219
2022-10-05T05:55:00.486Z,992.4433
2022-10-05T05:56:00.632Z,992.4934
2022-10-05T05:57:00.772Z,992.6145
2022-10-05T05:58:00.954Z,992.4078
2022-10-05T05:59:01.080Z,992.4431
2022-10-05T06:00:01.233Z,992.5211
2022-10-05T06:01:00.368Z,992.4926
2022-10-05T06:02:00.574Z,992.3568
2022-10-05T06:03:00.801Z,992.4064
2022-10-05T06:04:00.839Z,992.5128
2022-10-05T06:05:00.953Z,992.4626
2022-10-05T06:06:01.105Z,992.3484
2022-10-05T06:07:01.250Z,992.3338
2022-10-05T06:08:00.388Z,992.4047
2022-10-05T06:09:00.573Z,992.3833
2022-10-05T06:10:00.684Z,992.411
2022-10-05T06:11:00.848Z,992.5816
2022-10-05T06:12:00.996Z,992.3533
2022-10-05T06:13:01.836Z,992.5245
2022-10-05T06:14:00.295Z,992.4597
2022-10-05T06:15:00.425Z,992.4381
2022-10-05T06:16:00.633Z,992.3526
2022-10-05T06:17:00.727Z,992.4874
2022-10-05T06:18:00.848Z,992.4236
2022-10-05T06:19:01.039Z,992.4946
2022-10-05T06:20:04.735Z,992.423
2022-10-05T06:21:00.281Z,992.3659
2022-10-05T06:22:00.421Z,992.5433
2022-10-05T06:23:00.578Z,992.3434
2022-10-05T06:24:00.748Z,992.3709
2022-10-05T06:25:00.871Z,992.456
2022-10-05T06:26:01.012Z,992.3766
2022-10-05T06:27:01.152Z,992.3116
2022-10-05T06:28:00.333Z,992.453
2022-10-05T06:29:00.453Z,992.4453
2022-10-05T06:30:00.584Z,992.4377
2022-10-05T06:31:00.741Z,992.4161
2022-10-05T06:32:01.029Z,992.3871
2022-10-05T06:33:01.032Z,992.5498
2022-10-05T06:34:01.181Z,992.4138
2022-10-05T06:35:00.337Z,992.4478
2022-10-05T06:36:00.460Z,992.4102
2022-10-05T06:37:00.625Z,992.3021
2022-10-05T06:38:00.768Z,992.394
2022-10-05T06:39:00.899Z,992.3925
2022-10-05T06:40:01.406Z,992.2416
2022-10-05T06:41:01.193Z,992.3477
2022-10-05T06:42:00.362Z,992.4399
2022-10-05T06:43:00.518Z,992.2664
2022-10-05T06:44:00.647Z,992.4658
2022-10-05T06:45:00.788Z,992.2927
2022-10-05T06:46:01.031Z,992.2061
2022-10-05T06:47:01.126Z,992.3192
2022-10-05T06:48:05.160Z,992.304
2022-10-05T06:49:00.393Z,992.2954
2022-10-05T06:50:00.545Z,992.3443
2022-10-05T06:51:00.683Z,992.3504
2022-10-05T06:52:00.846Z,992.4923
2022-10-05T06:53:01.015Z,992.2329
2022-10-05T06:54:01.130Z,992.3529
2022-10-05T06:55:00.275Z,992.2873
2022-10-05T06:56:00.420Z,992.3064
2022-10-05T06:57:00.566Z,992.2762
2022-10-05T06:58:00.735Z,992.2967
2022-10-05T06:59:00.869Z,992.3379
2022-10-05T07:00:01.017Z,992.5592
2022-10-05T07:01:01.175Z,992.3277
2022-10-05T07:02:00.335Z,992.2835
2022-10-05T07:03:00.468Z,992.2324
2022-10-05T07:04:00.598Z,992.3101
2022-10-05T07:05:00.773Z,992.4027
2022-10-05T07:06:00.914Z,992.3228
2022-10-05T07:07:01.070Z,992.2714
2022-10-05T07:08:01.192Z,992.2346
2022-10-05T07:09:00.354Z,992.2557
2022-10-05T07:10:00.520Z,992.363
2022-10-05T07:11:00.645Z,992.1028
2022-10-05T07:12:04.830Z,992.0795
2022-10-05T07:13:00.940Z,992.1215
2022-10-05T07:14:01.082Z,992.1632
2022-10-05T07:15:01.304Z,992.0831
2022-10-05T07:16:00.422Z,992.0964
2022-10-05T07:17:00.537Z,992.152
2022-10-05T07:18:00.692Z,991.9923
2022-10-05T07:19:00.837Z,992.221
2022-10-05T07:20:00.990Z,991.9822
2022-10-05T07:21:01.136Z,992.0826
2022-10-05T07:22:00.314Z,991.9518
2022-10-05T07:23:00.433Z,991.8996
2022-10-05T07:24:00.580Z,991.9354
2022-10-05T07:25:00.731Z,992.0507
2022-10-05T07:26:00.905Z,991.9921
2022-10-05T07:27:01.032Z,991.9766
2022-10-05T07:28:01.209Z,992.1341
2022-10-05T07:29:00.306Z,992.1053
2022-10-05T07:30:00.454Z,991.9532
2022-10-05T07:31:00.709Z,991.873
2022-10-05T07:32:00.750Z,992.1238
2022-10-05T07:33:00.899Z,992.0077
2022-10-05T07:34:01.052Z,991.9712
2022-10-05T07:35:01.203Z,991.9491
2022-10-05T07:36:00.368Z,992.042
2022-10-05T07:37:00.498Z,992.0414
2022-10-05T07:38:00.631Z,991.925
2022-10-05T07:39:00.782Z,991.8962
2022-10-05T07:40:01.435Z,991.8594
2022-10-05T07:41:01.084Z,992.0827
2022-10-05T07:42:01.248Z,991.8508
2022-10-05T07:43:00.409Z,991.9149
2022-10-05T07:44:02.778Z,992.0872
2022-10-05T07:45:00.694Z,992.0584
2022-10-05T07:46:00.916Z,991.9349
2022-10-05T07:47:00.975Z,991.6739
2022-10-05T07:48:01.161Z,991.8821
2022-10-05T07:49:00.273Z,991.8164
2022-10-05T07:50:00.415Z,991.8803
2022-10-05T07:51:00.575Z,991.8298
2022-10-05T07:52:00.712Z,991.7929
2022-10-05T07:53:00.880Z,991.8857
2022-10-05T07:54:00.996Z,991.8405
2022-10-05T07:55:01.151Z,991.7818
2022-10-05T07:56:00.309Z,991.7671
2022-10-05T07:57:00.452Z,991.8749
2022-10-05T07:58:00.626Z,991.7723
2022-10-05T07:59:00.753Z,991.8294
2022-10-05T08:00:00.891Z,991.9223
2022-10-05T08:01:01.054Z,991.892
2022-10-05T08:02:01.342Z,991.7824
2022-10-05T08:03:00.414Z,991.8106
2022-10-05T08:04:00.483Z,991.9047
2022-10-05T08:05:00.650Z,991.8958
2022-10-05T08:06:00.779Z,991.9519
2022-10-05T08:07:00.928Z,991.9144
2022-10-05T08:08:01.096Z,991.8261
2022-10-05T08:09:01.223Z,992.2378
2022-10-05T08:10:00.386Z,991.9117
2022-10-05T08:11:00.500Z,991.8528
2022-10-05T08:12:00.659Z,991.8077
2022-10-05T08:13:00.801Z,991.872
2022-10-05T08:14:00.966Z,991.9943
2022-10-05T08:15:01.151Z,991.7991
2022-10-05T08:16:00.322Z,991.8351
2022-10-05T08:17:00.411Z,991.7271
2022-10-05T08:18:00.567Z,991.8492
2022-10-05T08:19:00.707Z,991.7688
2022-10-05T08:20:00.876Z,991.848
2022-10-05T08:21:01.005Z,991.8034
2022-10-05T08:22:01.153Z,991.9631
2022-10-05T08:23:00.293Z,991.7234
2022-10-05T08:24:00.442Z,991.8378
2022-10-05T08:25:00.598Z,991.756
2022-10-05T08:26:00.751Z,991.7029
2022-10-05T08:27:00.879Z,991.6359
2022-10-05T08:28:01.157Z,991.6706
2022-10-05T08:29:01.162Z,991.6254
2022-10-05T08:30:00.307Z,991.6968
2022-10-05T08:31:00.546Z,991.6952
2022-10-05T08:32:00.608Z,991.5923
2022-10-05T08:33:00.764Z,991.758
2022-10-05T08:34:00.908Z,991.5822
2022-10-05T08:35:01.051Z,991.7915
2022-10-05T08:36:01.219Z,991.6816
2022-10-05T08:37:00.345Z,991.5796
2022-10-05T08:38:00.494Z,991.5796
2022-10-05T08:39:00.639Z,991.6305
2022-10-05T08:40:00.790Z,991.7978
2022-10-05T08:41:00.951Z,991.7193
2022-10-05T08:42:01.113Z,991.6832
2022-10-05T08:43:01.238Z,991.7123
2022-10-05T08:44:00.382Z,991.454
2022-10-05T08:45:00.532Z,991.5592
2022-10-05T08:46:00.746Z,991.6234
2022-10-05T08:47:00.876Z,991.5731
2022-10-05T08:48:01.011Z,991.5372
2022-10-05T08:49:01.136Z,991.5883
2022-10-05T08:50:00.276Z,991.4718
2022-10-05T08:51:00.434Z,991.6605
2022-10-05T08:52:00.596Z,991.4721
2022-10-05T08:53:00.757Z,991.552
2022-10-05T08:54:00.870Z,991.6605
2022-10-05T08:55:01.031Z,991.4237
2022-10-05T08:56:01.187Z,991.5159
2022-10-05T08:57:00.319Z,991.4317
2022-10-05T08:58:00.490Z,991.6682
2022-10-05T08:59:00.613Z,991.5021
2022-10-05T09:00:00.774Z,991.5021
2022-10-05T09:01:00.973Z,991.5089
2022-10-05T09:02:01.080Z,991.4617
2022-10-05T09:03:01.337Z,991.3094
2022-10-05T09:04:00.370Z,991.488
2022-10-05T09:05:00.517Z,991.3307
2022-10-05T09:06:00.714Z,991.4249
2022-10-05T09:07:00.811Z,991.5592
2022-10-05T09:08:00.973Z,991.3656
2022-10-05T09:09:01.135Z,991.4009
2022-10-05T09:10:02.087Z,991.5072
2022-10-05T09:11:00.413Z,991.3719
2022-10-05T09:12:00.544Z,991.5363
2022-10-05T09:13:00.689Z,991.4443
2022-10-05T09:14:00.866Z,991.4443
2022-10-05T09:15:24.390Z,991.4152
2022-10-05T09:16:01.206Z,991.4583
2022-10-05T09:17:00.282Z,991.298
2022-10-05T09:18:00.447Z,991.3772
2022-10-05T09:19:00.596Z,991.5118
2022-10-05T09:20:00.733Z,991.5622
2022-10-05T09:21:00.878Z,991.5693
2022-10-05T09:22:01.059Z,991.39
2022-10-05T09:23:01.175Z,991.6126
2022-10-05T09:24:00.334Z,991.5186
2022-10-05T09:25:00.487Z,991.4898
2022-10-05T09:26:00.618Z,991.4276
2022-10-05T09:27:00.790Z,991.5693
2022-10-05T09:28:00.920Z,991.6054
2022-10-05T09:29:01.057Z,991.6054
2022-10-05T09:30:01.206Z,991.474
2022-10-05T09:31:00.395Z,991.6054
2022-10-05T09:32:00.509Z,991.4121
2022-10-05T09:33:00.639Z,991.3827
2022-10-05T09:34:00.795Z,991.4121
2022-10-05T09:35:00.941Z,991.4191
2022-10-05T09:36:01.094Z,991.4803
2022-10-05T09:37:01.265Z,991.4244
2022-10-05T09:38:00.395Z,991.3801
2022-10-05T09:39:00.561Z,991.4707
2022-10-05T09:40:01.663Z,991.4077
2022-10-05T09:41:00.831Z,991.484
2022-10-05T09:42:00.983Z,991.3987
2022-10-05T09:43:01.135Z,991.4964
2022-10-05T09:44:00.286Z,991.2728
2022-10-05T09:45:00.471Z,991.4244
2022-10-05T09:46:00.651Z,991.4722
2022-10-05T09:47:00.741Z,991.501
2022-10-05T09:48:00.881Z,991.3075
2022-10-05T09:49:01.041Z,991.3075
2022-10-05T09:50:01.215Z,991.3296
2022-10-05T09:51:00.335Z,991.316
2022-10-05T09:52:00.486Z,991.3378
2022-10-05T09:53:00.622Z,991.3318
2022-10-05T09:54:00.768Z,991.3679
2022-10-05T09:55:00.961Z,991.3757
2022-10-05T09:56:01.065Z,991.4753
2022-10-05T09:57:01.234Z,991.4569
2022-10-05T09:58:00.360Z,991.2683
2022-10-05T09:59:00.502Z,991.3342
2022-10-05T10:00:00.740Z,991.3995
2022-10-05T10:01:09.116Z,991.3345
2022-10-05T10:02:01.010Z,991.4727
2022-10-05T10:03:01.280Z,991.5068
2022-10-05T10:04:01.262Z,991.4707
2022-10-05T10:05:00.388Z,991.3643
2022-10-05T10:06:00.562Z,991.5296
2022-10-05T10:07:00.708Z,991.5807
2022-10-05T10:08:00.840Z,991.5308
2022-10-05T10:09:00.991Z,991.4796
2022-10-05T10:10:01.136Z,991.4535
2022-10-05T10:11:00.276Z,991.4673
2022-10-05T10:12:00.446Z,991.5669
2022-10-05T10:13:00.574Z,991.5308
2022-10-05T10:14:00.730Z,991.4382
2022-10-05T10:15:02.997Z,991.5587
2022-10-05T10:16:01.074Z,991.4305
2022-10-05T10:17:01.187Z,991.5659
2022-10-05T10:18:00.309Z,991.4092
2022-10-05T10:19:00.463Z,991.5155
2022-10-05T10:20:00.603Z,991.5296
2022-10-05T10:21:00.758Z,991.2928
2022-10-05T10:22:00.916Z,991.365
2022-10-05T10:23:01.069Z,991.4516
2022-10-05T10:24:01.198Z,991.3643
2022-10-05T10:25:00.351Z,991.3934
2022-10-05T10:26:00.502Z,991.3432
2022-10-05T10:27:00.656Z,991.3941
2022-10-05T10:28:00.836Z,991.286
2022-10-05T10:29:00.949Z,991.3953
2022-10-05T10:30:01.119Z,991.4656
2022-10-05T10:31:01.298Z,991.3883
2022-10-05T10:32:00.394Z,991.4174
2022-10-05T10:33:00.555Z,991.3592
2022-10-05T10:34:00.679Z,991.3883
2022-10-05T10:35:00.827Z,991.3372
2022-10-05T10:36:03.100Z,991.3011
2022-10-05T10:37:01.134Z,991.3442
2022-10-05T10:38:00.291Z,991.5368
2022-10-05T10:39:00.449Z,991.5005
2022-10-05T10:40:00.587Z,991.3934
2022-10-05T10:41:00.736Z,991.4004
2022-10-05T10:42:00.883Z,991.3924
2022-10-05T10:43:01.021Z,991.3405
2022-10-05T10:44:01.187Z,991.4673
2022-10-05T10:45:00.312Z,991.4673
2022-10-05T10:46:00.526Z,991.4736
2022-10-05T10:47:00.668Z,991.3953
2022-10-05T10:48:00.767Z,991.439
2022-10-05T10:49:00.940Z,991.446
2022-10-05T10:50:01.057Z,991.6457
2022-10-05T10:51:01.199Z,991.5874
2022-10-05T10:52:00.358Z,991.5938
2022-10-05T10:53:00.485Z,991.6008
2022-10-05T10:54:00.682Z,991.6008
2022-10-05T10:55:00.793Z,991.5938
2022-10-05T10:56:00.932Z,991.5646
2022-10-05T10:57:01.091Z,991.5646
2022-10-05T10:58:01.228Z,991.5646
2022-10-05T10:59:00.387Z,991.7243
2022-10-05T11:00:00.519Z,991.5054
2022-10-05T11:01:00.674Z,991.8251
2022-10-05T11:02:00.902Z,991.5118
2022-10-05T11:03:01.022Z,991.5479
2022-10-05T11:04:01.140Z,991.5402
2022-10-05T11:05:00.266Z,991.562
2022-10-05T11:06:00.408Z,991.4669
2022-10-05T11:07:00.550Z,991.4669
2022-10-05T11:08:00.706Z,991.3968
2022-10-05T11:09:00.861Z,991.4689
2022-10-05T11:10:01.011Z,991.3446
2022-10-05T11:11:01.141Z,991.4169
2022-10-05T11:12:00.281Z,991.5298
2022-10-05T11:13:00.437Z,991.5359
2022-10-05T11:14:00.566Z,991.5439
2022-10-05T11:15:00.716Z,991.6525
2022-10-05T11:16:01.045Z,991.5359
2022-10-05T11:17:01.004Z,991.4839
2022-10-05T11:18:01.172Z,991.5201
2022-10-05T11:19:00.301Z,991.5784
2022-10-05T11:20:04.769Z,991.5422
2022-10-05T11:21:00.592Z,991.5067
2022-10-05T11:22:00.742Z,991.4082
2022-10-05T11:23:00.905Z,991.4232
2022-10-05T11:24:01.026Z,991.4776
2022-10-05T11:25:01.177Z,991.4776
2022-10-05T11:26:00.317Z,991.5067
2022-10-05T11:27:00.471Z,991.379
2022-10-05T11:28:00.685Z,991.4776
2022-10-05T11:29:00.763Z,991.371
2022-10-05T11:30:00.907Z,991.4434
2022-10-05T11:31:01.109Z,991.3125
2022-10-05T11:32:01.210Z,991.4917
2022-10-05T11:33:00.378Z,991.4356
2022-10-05T11:34:00.513Z,991.4427
2022-10-05T11:35:00.652Z,991.4434
2022-10-05T11:36:00.804Z,991.4065
2022-10-05T11:37:00.953Z,991.3623
2022-10-05T11:38:01.117Z,991.4065
2022-10-05T11:39:01.257Z,991.3559
2022-10-05T11:40:00.395Z,991.4072
2022-10-05T11:41:00.542Z,991.371
2022-10-05T11:42:00.699Z,991.2484
2022-10-05T11:43:00.865Z,991.4162
2022-10-05T11:44:06.072Z,991.2273
2022-10-05T11:45:01.132Z,991.3147
2022-10-05T11:46:00.316Z,991.3144